sensor_id;sensor_type;location;lat;lon;timestamp;pressure;altitude;pressure_sealevel;temperature;humidity
65054;BME280;51639;47.828;35.038;2023-03-16T00:00:30;99477.78;;;10.01;100.00
65054;BME280;51639;47.828;35.038;2023-03-16T00:15:33;99469.28;;;9.86;100.00
65054;BME280;51639;47.828;35.038;2023-03-16T00:30:36;99451.84;;;9.71;100.00
65054;BME280;51639;47.828;35.038;2023-03-16T00:45:38;99458.66;;;9.63;100.00
65054;BME280;51639;47.828;35.038;2023-03-16T01:00:40;99441.22;;;9.64;100.00
65054;BME280;51639;47.828;35.038;2023-03-16T01:15:41;99446.31;;;9.62;100.00
65054;BME280;51639;47.828;35.038;2023-03-16T01:30:46;99449.97;;;9.55;100.00
65054;BME280;51639;47.828;35.038;2023-03-16T02:00:59;99448.16;;;9.20;100.00
65054;BME280;51639;47.828;35.038;2023-03-16T02:16:06;99423.88;;;9.16;100.00
65054;BME280;51639;47.828;35.038;2023-03-16T02:31:11;99395.06;;;9.22;100.00
65054;BME280;51639;47.828;35.038;2023-03-16T02:46:16;99403.34;;;9.32;100.00
65054;BME280;51639;47.828;35.038;2023-03-16T03:01:21;99415.47;;;9.43;100.00
65054;BME280;51639;47.828;35.038;2023-03-16T03:16:23;99405.38;;;9.44;100.00
65054;BME280;51639;47.828;35.038;2023-03-16T03:31:25;99415.38;;;9.31;100.00
65054;BME280;51639;47.828;35.038;2023-03-16T03:46:27;99409.66;;;9.12;100.00
65054;BME280;51639;47.828;35.038;2023-03-16T04:01:31;99404.75;;;9.07;100.00
65054;BME280;51639;47.828;35.038;2023-03-16T04:16:32;99412.84;;;9.23;100.00
65054;BME280;51639;47.828;35.038;2023-03-16T04:31:34;99412.06;;;9.23;100.00
65054;BME280;51639;47.828;35.038;2023-03-16T04:46:37;99384.78;;;9.01;100.00
65054;BME280;51639;47.828;35.038;2023-03-16T05:01:39;99396.78;;;9.16;100.00
65054;BME280;51639;47.828;35.038;2023-03-16T05:16:41;99404.03;;;9.36;100.00
65054;BME280;51639;47.828;35.038;2023-03-16T05:31:43;99438.88;;;9.50;100.00
65054;BME280;51639;47.828;35.038;2023-03-16T05:46:48;99462.22;;;9.60;100.00
65054;BME280;51639;47.828;35.038;2023-03-16T06:01:50;99441.09;;;9.97;100.00
65054;BME280;51639;47.828;35.038;2023-03-16T06:16:52;99434.72;;;9.90;100.00
65054;BME280;51639;47.828;35.038;2023-03-16T06:31:54;99435.13;;;9.89;100.00
65054;BME280;51639;47.828;35.038;2023-03-16T06:46:56;99430.16;;;9.87;100.00
65054;BME280;51639;47.828;35.038;2023-03-16T07:01:59;99415.31;;;10.05;100.00
65054;BME280;51639;47.828;35.038;2023-03-16T07:17:03;99418.03;;;10.05;100.00
65054;BME280;51639;47.828;35.038;2023-03-16T07:32:05;99419.03;;;10.11;100.00
65054;BME280;51639;47.828;35.038;2023-03-16T07:47:11;99362.38;;;9.87;100.00
65054;BME280;51639;47.828;35.038;2023-03-16T08:02:14;99348.16;;;9.96;100.00
65054;BME280;51639;47.828;35.038;2023-03-16T08:17:16;99342.44;;;10.07;100.00
65054;BME280;51639;47.828;35.038;2023-03-16T08:32:18;99332.16;;;10.27;100.00
65054;BME280;51639;47.828;35.038;2023-03-16T08:47:21;99340.50;;;10.45;100.00
65054;BME280;51639;47.828;35.038;2023-03-16T09:02:24;99331.78;;;10.76;100.00
65054;BME280;51639;47.828;35.038;2023-03-16T09:17:26;99342.88;;;11.38;100.00
65054;BME280;51639;47.828;35.038;2023-03-16T09:32:29;99335.81;;;11.62;100.00
65054;BME280;51639;47.828;35.038;2023-03-16T09:47:33;99346.31;;;12.35;100.00
65054;BME280;51639;47.828;35.038;2023-03-16T10:02:45;99354.94;;;12.73;100.00
65054;BME280;51639;47.828;35.038;2023-03-16T10:32:54;99331.22;;;13.10;100.00
65054;BME280;51639;47.828;35.038;2023-03-16T10:48:30;99326.78;;;12.85;100.00
65054;BME280;51639;47.828;35.038;2023-03-16T11:03:40;99383.06;;;12.70;100.00
65054;BME280;51639;47.828;35.038;2023-03-16T11:18:50;99386.84;;;12.73;100.00
65054;BME280;51639;47.828;35.038;2023-03-16T11:33:54;99402.31;;;12.85;100.00
65054;BME280;51639;47.828;35.038;2023-03-16T11:49:20;99406.50;;;12.77;100.00
65054;BME280;51639;47.828;35.038;2023-03-16T12:20:04;99434.59;;;13.14;100.00
65054;BME280;51639;47.828;35.038;2023-03-16T12:50:59;99468.25;;;12.80;100.00
65054;BME280;51639;47.828;35.038;2023-03-16T13:06:02;99489.16;;;12.83;100.00
65054;BME280;51639;47.828;35.038;2023-03-16T13:21:22;99486.88;;;12.81;100.00
65054;BME280;51639;47.828;35.038;2023-03-16T13:36:35;99499.72;;;12.81;100.00
65054;BME280;51639;47.828;35.038;2023-03-16T13:51:38;99510.94;;;12.83;100.00
65054;BME280;51639;47.828;35.038;2023-03-16T14:06:54;99532.66;;;12.64;100.00
65054;BME280;51639;47.828;35.038;2023-03-16T14:22:00;99544.16;;;12.69;100.00
65054;BME280;51639;47.828;35.038;2023-03-16T14:37:12;99561.41;;;12.66;100.00
65054;BME280;51639;47.828;35.038;2023-03-16T15:22:28;99592.78;;;12.57;100.00
65054;BME280;51639;47.828;35.038;2023-03-16T15:37:31;99595.72;;;12.41;100.00
65054;BME280;51639;47.828;35.038;2023-03-16T15:52:35;99612.94;;;12.38;100.00
65054;BME280;51639;47.828;35.038;2023-03-16T16:07:38;99604.69;;;12.29;100.00
65054;BME280;51639;47.828;35.038;2023-03-16T16:22:47;99604.41;;;12.14;100.00
65054;BME280;51639;47.828;35.038;2023-03-16T16:37:53;99624.13;;;12.06;100.00
65054;BME280;51639;47.828;35.038;2023-03-16T16:52:55;99641.34;;;12.03;100.00
65054;BME280;51639;47.828;35.038;2023-03-16T17:07:58;99650.72;;;12.02;100.00
65054;BME280;51639;47.828;35.038;2023-03-16T17:23:40;99656.38;;;11.94;100.00
65054;BME280;51639;47.828;35.038;2023-03-16T17:38:43;99665.25;;;12.08;100.00
65054;BME280;51639;47.828;35.038;2023-03-16T17:53:45;99671.81;;;11.98;100.00
65054;BME280;51639;47.828;35.038;2023-03-16T18:08:57;99682.72;;;11.98;100.00
65054;BME280;51639;47.828;35.038;2023-03-16T18:24:08;99681.00;;;11.78;100.00
65054;BME280;51639;47.828;35.038;2023-03-16T18:39:18;99674.88;;;11.74;100.00
65054;BME280;51639;47.828;35.038;2023-03-16T19:09:29;99702.72;;;11.53;100.00
65054;BME280;51639;47.828;35.038;2023-03-16T19:24:43;99694.44;;;11.44;100.00
65054;BME280;51639;47.828;35.038;2023-03-16T19:39:48;99681.28;;;11.30;100.00
65054;BME280;51639;47.828;35.038;2023-03-16T19:54:50;99670.16;;;11.37;100.00
65054;BME280;51639;47.828;35.038;2023-03-16T20:09:52;99673.78;;;11.34;100.00
65054;BME280;51639;47.828;35.038;2023-03-16T20:24:54;99673.84;;;11.17;100.00
65054;BME280;51639;47.828;35.038;2023-03-16T20:39:59;99679.94;;;11.21;100.00
65054;BME280;51639;47.828;35.038;2023-03-16T20:55:03;99712.75;;;11.14;100.00
65054;BME280;51639;47.828;35.038;2023-03-16T21:10:06;99722.19;;;11.10;100.00
65054;BME280;51639;47.828;35.038;2023-03-16T21:25:28;99741.31;;;11.06;100.00
65054;BME280;51639;47.828;35.038;2023-03-16T21:40:32;99733.88;;;10.94;100.00
65054;BME280;51639;47.828;35.038;2023-03-16T21:55:33;99744.91;;;10.87;100.00
65054;BME280;51639;47.828;35.038;2023-03-16T22:10:36;99765.03;;;10.89;100.00
65054;BME280;51639;47.828;35.038;2023-03-16T22:25:38;99777.50;;;10.87;100.00
65054;BME280;51639;47.828;35.038;2023-03-16T22:40:41;99779.69;;;10.92;100.00
65054;BME280;51639;47.828;35.038;2023-03-16T22:55:43;99786.84;;;10.86;100.00
65054;BME280;51639;47.828;35.038;2023-03-16T23:10:47;99795.31;;;10.88;100.00
65054;BME280;51639;47.828;35.038;2023-03-16T23:25:49;99783.47;;;10.82;100.00
65054;BME280;51639;47.828;35.038;2023-03-16T23:40:51;99788.34;;;10.87;100.00
65054;BME280;51639;47.828;35.038;2023-03-16T23:55:53;99800.28;;;10.77;100.00
